Aérodrome :
LOGIN :

S'inscrire | Disclaimer

   EN    FR    IT 

 










Légende :    VFR   VFR Marginal   IFR   IFR Intensif   IFR Très Intensif
Visi : 
Plafond : 
>= 8 km
>= 3000ft
5 à 8 km
1000 à 3000 ft
1500m à 5 km
500 à 1000 ft
800 à 1500m
200 à 500 ft
< 800m
< 200 ft
Symboles :   Orages  Brouillard  Fortes neiges  Fortes précipitations  Vent > 20 kt
SIGMETs :   Divers  Orages  Givrage  Turbulence  Onde Orograph.  Cendres Volcan.







- Altitude de l'aérodrome : 45 ft
- Code IATA : CEG
- Voir les cartes d'approche


EGNR - Hawarden Chester

DERNIER METAR :
  • 201820Z 22003KT 8000 BKN029 04/03 Q1023

METARs EXPIRÉS :
  • 201750Z 21003KT 8000 SCT034 BKN046 03/02 Q1022
  • 201720Z 22001KT 8000 BKN046 04/03 Q1022
  • 201650Z VRB01KT 8000 BKN044 05/03 Q1022
  • 201620Z 33002KT 8000 BKN043 06/04 Q1022
  • 201550Z 34004KT 8000 FEW007 BKN041 06/04 Q1021

TAF TAF EGNR
Valide du 20 à 15h jusqu'au 20 à 19h UTC


201357Z 2015/2019 32004KT 4000 BR SCT010
BECMG 2015/2018 9999 NSW
TEMPO 2015/2019 6000 -RADZ BKN012
Pas de NOTAMs connus pour ce terrain.



MET'MAP, la Météo Aéronautique d'un coup d'oeil ! - Copyright ORBIFLY Décembre 2007 - Disclaimer

ORBIFLY MET'MAP TEAM :

Programmation & Développement : Alexandra Zaïnal
Conception & Développement : Baudouin d'Aumeries
Co-Programmation & Développement : Marc-Olivier Méhu
Soutien technique & logistique : Manuel Goepfert

Contact : metmap@orbifly.com




SOURCES & CREDITS :

   NOAA